sensor_id;sensor_type;location;lat;lon;timestamp;P1;durP1;ratioP1;P2;durP2;ratioP2
68655;SDS011;55638;51.122;13.606;2022-12-13T10:27:13;23.58;;;14.02;;
68655;SDS011;55638;51.122;13.606;2022-12-13T10:28:47;22.70;;;12.70;;
68655;SDS011;55638;51.122;13.606;2022-12-13T10:30:22;20.35;;;12.80;;
68655;SDS011;55638;51.122;13.606;2022-12-13T10:32:00;21.83;;;13.02;;
68655;SDS011;55638;51.122;13.606;2022-12-13T10:33:49;21.92;;;13.80;;
68655;SDS011;55638;51.122;13.606;2022-12-13T10:35:26;23.13;;;12.88;;
68655;SDS011;55638;51.122;13.606;2022-12-13T10:38:54;21.23;;;13.23;;
68655;SDS011;55638;51.122;13.606;2022-12-13T10:40:36;22.98;;;13.35;;
68655;SDS011;55638;51.122;13.606;2022-12-13T10:42:16;21.27;;;13.45;;
68655;SDS011;55638;51.122;13.606;2022-12-13T10:45:56;25.25;;;13.75;;
68655;SDS011;55638;51.122;13.606;2022-12-13T10:47:31;21.48;;;13.15;;
68655;SDS011;55638;51.122;13.606;2022-12-13T10:49:03;19.42;;;12.65;;
68655;SDS011;55638;51.122;13.606;2022-12-13T10:51:00;20.02;;;12.07;;
68655;SDS011;55638;51.122;13.606;2022-12-13T10:52:37;20.17;;;11.75;;
68655;SDS011;55638;51.122;13.606;2022-12-13T10:54:15;17.05;;;11.23;;
68655;SDS011;55638;51.122;13.606;2022-12-13T10:55:53;17.48;;;11.15;;
68655;SDS011;55638;51.122;13.606;2022-12-13T10:57:32;15.13;;;10.85;;
68655;SDS011;55638;51.122;13.606;2022-12-13T10:59:16;17.88;;;10.52;;
68655;SDS011;55638;51.122;13.606;2022-12-13T11:00:55;16.80;;;8.45;;
68655;SDS011;55638;51.122;13.606;2022-12-13T11:02:40;16.52;;;10.32;;
68655;SDS011;55638;51.122;13.606;2022-12-13T11:07:48;16.83;;;10.70;;
68655;SDS011;55638;51.122;13.606;2022-12-13T11:09:24;17.33;;;11.18;;
68655;SDS011;55638;51.122;13.606;2022-12-13T11:11:09;15.02;;;10.48;;
68655;SDS011;55638;51.122;13.606;2022-12-13T11:12:42;16.80;;;11.52;;
68655;SDS011;55638;51.122;13.606;2022-12-13T11:14:16;15.75;;;10.23;;
68655;SDS011;55638;51.122;13.606;2022-12-13T11:18:18;15.95;;;10.95;;
68655;SDS011;55638;51.122;13.606;2022-12-13T11:21:26;15.15;;;10.13;;
68655;SDS011;55638;51.122;13.606;2022-12-13T11:23:04;15.77;;;11.10;;
68655;SDS011;55638;51.122;13.606;2022-12-13T11:24:37;15.63;;;10.18;;
68655;SDS011;55638;51.122;13.606;2022-12-13T11:26:18;14.80;;;9.77;;
68655;SDS011;55638;51.122;13.606;2022-12-13T11:37:31;12.75;;;8.70;;
68655;SDS011;55638;51.122;13.606;2022-12-13T11:39:20;13.55;;;9.15;;
68655;SDS011;55638;51.122;13.606;2022-12-13T11:41:43;14.63;;;9.68;;
68655;SDS011;55638;51.122;13.606;2022-12-13T11:47:03;11.95;;;8.70;;
68655;SDS011;55638;51.122;13.606;2022-12-13T11:50:30;13.48;;;9.35;;
68655;SDS011;55638;51.122;13.606;2022-12-13T11:54:05;14.98;;;10.25;;
68655;SDS011;55638;51.122;13.606;2022-12-13T11:58:11;12.98;;;9.32;;
68655;SDS011;55638;51.122;13.606;2022-12-13T12:05:33;14.43;;;9.48;;
68655;SDS011;55638;51.122;13.606;2022-12-13T12:09:05;13.20;;;8.98;;
68655;SDS011;55638;51.122;13.606;2022-12-13T12:10:42;13.95;;;10.00;;
68655;SDS011;55638;51.122;13.606;2022-12-13T12:12:29;14.82;;;9.73;;
68655;SDS011;55638;51.122;13.606;2022-12-13T12:15:45;15.60;;;11.63;;
68655;SDS011;55638;51.122;13.606;2022-12-13T12:17:38;14.10;;;10.43;;
68655;SDS011;55638;51.122;13.606;2022-12-13T12:19:13;14.35;;;9.52;;
68655;SDS011;55638;51.122;13.606;2022-12-13T12:29:38;14.63;;;9.35;;
68655;SDS011;55638;51.122;13.606;2022-12-13T12:54:11;12.00;;;8.20;;
68655;SDS011;55638;51.122;13.606;2022-12-13T13:01:25;8.02;;;6.80;;
68655;SDS011;55638;51.122;13.606;2022-12-13T13:03:18;8.75;;;6.57;;
68655;SDS011;55638;51.122;13.606;2022-12-13T13:05:17;9.18;;;6.45;;
68655;SDS011;55638;51.122;13.606;2022-12-13T13:06:59;9.93;;;6.35;;
68655;SDS011;55638;51.122;13.606;2022-12-13T13:10:36;11.15;;;6.97;;
68655;SDS011;55638;51.122;13.606;2022-12-13T13:12:09;9.48;;;6.75;;
68655;SDS011;55638;51.122;13.606;2022-12-13T13:18:50;10.85;;;6.93;;
68655;SDS011;55638;51.122;13.606;2022-12-13T13:20:26;10.40;;;6.68;;
68655;SDS011;55638;51.122;13.606;2022-12-13T13:21:59;9.25;;;6.40;;
68655;SDS011;55638;51.122;13.606;2022-12-13T13:23:32;8.52;;;6.32;;
68655;SDS011;55638;51.122;13.606;2022-12-13T13:25:13;8.52;;;6.18;;
68655;SDS011;55638;51.122;13.606;2022-12-13T13:26:56;6.45;;;4.60;;
68655;SDS011;55638;51.122;13.606;2022-12-13T13:28:48;10.32;;;6.40;;
68655;SDS011;55638;51.122;13.606;2022-12-13T13:30:21;8.43;;;6.45;;
68655;SDS011;55638;51.122;13.606;2022-12-13T13:33:48;9.65;;;6.68;;
68655;SDS011;55638;51.122;13.606;2022-12-13T13:38:54;8.93;;;6.13;;
68655;SDS011;55638;51.122;13.606;2022-12-13T13:40:35;8.52;;;6.25;;
68655;SDS011;55638;51.122;13.606;2022-12-13T13:42:19;9.80;;;6.50;;
68655;SDS011;55638;51.122;13.606;2022-12-13T13:43:59;8.13;;;6.15;;
68655;SDS011;55638;51.122;13.606;2022-12-13T13:47:35;9.23;;;5.97;;
68655;SDS011;55638;51.122;13.606;2022-12-13T13:52:36;8.18;;;5.78;;
68655;SDS011;55638;51.122;13.606;2022-12-13T13:54:43;8.63;;;6.03;;
68655;SDS011;55638;51.122;13.606;2022-12-13T13:56:31;9.40;;;6.30;;
68655;SDS011;55638;51.122;13.606;2022-12-13T13:58:14;10.32;;;6.40;;
68655;SDS011;55638;51.122;13.606;2022-12-13T14:02:01;9.95;;;6.60;;
68655;SDS011;55638;51.122;13.606;2022-12-13T14:04:20;10.80;;;6.47;;
68655;SDS011;55638;51.122;13.606;2022-12-13T14:08:27;9.93;;;7.00;;
68655;SDS011;55638;51.122;13.606;2022-12-13T14:16:32;8.98;;;6.55;;
68655;SDS011;55638;51.122;13.606;2022-12-13T14:24:31;10.93;;;7.00;;
68655;SDS011;55638;51.122;13.606;2022-12-13T14:29:45;10.82;;;7.43;;
68655;SDS011;55638;51.122;13.606;2022-12-13T14:31:34;10.77;;;7.03;;
68655;SDS011;55638;51.122;13.606;2022-12-13T14:33:20;9.43;;;6.38;;
68655;SDS011;55638;51.122;13.606;2022-12-13T14:34:54;11.35;;;7.13;;
68655;SDS011;55638;51.122;13.606;2022-12-13T14:36:31;10.63;;;7.00;;
68655;SDS011;55638;51.122;13.606;2022-12-13T14:38:16;10.35;;;7.35;;
68655;SDS011;55638;51.122;13.606;2022-12-13T14:39:53;10.57;;;6.72;;
68655;SDS011;55638;51.122;13.606;2022-12-13T14:41:25;11.25;;;7.28;;
68655;SDS011;55638;51.122;13.606;2022-12-13T14:42:57;10.82;;;7.45;;
68655;SDS011;55638;51.122;13.606;2022-12-13T14:44:30;13.93;;;7.43;;
68655;SDS011;55638;51.122;13.606;2022-12-13T14:46:05;13.50;;;7.72;;
68655;SDS011;55638;51.122;13.606;2022-12-13T14:47:39;12.20;;;7.57;;
68655;SDS011;55638;51.122;13.606;2022-12-13T14:49:11;11.98;;;7.45;;
68655;SDS011;55638;51.122;13.606;2022-12-13T14:50:45;11.27;;;7.50;;
68655;SDS011;55638;51.122;13.606;2022-12-13T14:52:21;11.15;;;6.65;;
68655;SDS011;55638;51.122;13.606;2022-12-13T14:53:58;10.70;;;6.85;;
68655;SDS011;55638;51.122;13.606;2022-12-13T14:55:32;10.52;;;6.47;;
68655;SDS011;55638;51.122;13.606;2022-12-13T14:57:12;12.63;;;7.63;;
68655;SDS011;55638;51.122;13.606;2022-12-13T14:58:54;12.85;;;7.15;;
68655;SDS011;55638;51.122;13.606;2022-12-13T15:00:33;13.27;;;7.72;;
68655;SDS011;55638;51.122;13.606;2022-12-13T15:02:13;14.38;;;9.30;;
68655;SDS011;55638;51.122;13.606;2022-12-13T15:03:46;17.65;;;9.95;;
68655;SDS011;55638;51.122;13.606;2022-12-13T15:05:23;17.98;;;10.43;;
68655;SDS011;55638;51.122;13.606;2022-12-13T15:07:06;19.77;;;11.15;;
68655;SDS011;55638;51.122;13.606;2022-12-13T15:08:39;17.05;;;10.68;;
68655;SDS011;55638;51.122;13.606;2022-12-13T15:10:24;18.20;;;10.73;;
68655;SDS011;55638;51.122;13.606;2022-12-13T15:12:12;17.55;;;10.55;;
68655;SDS011;55638;51.122;13.606;2022-12-13T15:13:55;17.00;;;9.85;;
68655;SDS011;55638;51.122;13.606;2022-12-13T15:15:34;19.40;;;10.23;;
68655;SDS011;55638;51.122;13.606;2022-12-13T15:17:19;14.80;;;9.35;;
68655;SDS011;55638;51.122;13.606;2022-12-13T15:21:21;13.07;;;8.60;;
68655;SDS011;55638;51.122;13.606;2022-12-13T15:23:01;16.42;;;8.73;;
68655;SDS011;55638;51.122;13.606;2022-12-13T15:24:40;14.30;;;8.23;;
68655;SDS011;55638;51.122;13.606;2022-12-13T15:26:30;15.68;;;7.97;;
68655;SDS011;55638;51.122;13.606;2022-12-13T15:28:03;15.65;;;8.45;;
68655;SDS011;55638;51.122;13.606;2022-12-13T15:29:36;13.70;;;7.95;;
68655;SDS011;55638;51.122;13.606;2022-12-13T15:31:08;14.25;;;8.88;;
68655;SDS011;55638;51.122;13.606;2022-12-13T15:34:36;14.23;;;8.77;;
68655;SDS011;55638;51.122;13.606;2022-12-13T15:36:09;17.13;;;10.10;;
68655;SDS011;55638;51.122;13.606;2022-12-13T15:37:46;17.33;;;10.05;;
68655;SDS011;55638;51.122;13.606;2022-12-13T15:39:18;14.75;;;9.07;;
68655;SDS011;55638;51.122;13.606;2022-12-13T15:40:50;14.20;;;9.13;;
68655;SDS011;55638;51.122;13.606;2022-12-13T15:44:15;14.57;;;9.32;;
68655;SDS011;55638;51.122;13.606;2022-12-13T15:45:58;19.20;;;9.85;;
68655;SDS011;55638;51.122;13.606;2022-12-13T15:47:31;15.73;;;10.10;;
68655;SDS011;55638;51.122;13.606;2022-12-13T15:49:03;15.38;;;9.35;;
68655;SDS011;55638;51.122;13.606;2022-12-13T15:50:46;15.30;;;9.32;;
68655;SDS011;55638;51.122;13.606;2022-12-13T15:55:41;14.23;;;8.38;;
68655;SDS011;55638;51.122;13.606;2022-12-13T15:57:22;13.52;;;8.60;;
68655;SDS011;55638;51.122;13.606;2022-12-13T15:59:05;13.05;;;8.20;;
68655;SDS011;55638;51.122;13.606;2022-12-13T16:00:58;12.80;;;7.07;;
68655;SDS011;55638;51.122;13.606;2022-12-13T16:02:36;16.02;;;8.68;;
68655;SDS011;55638;51.122;13.606;2022-12-13T16:04:21;15.10;;;8.88;;
68655;SDS011;55638;51.122;13.606;2022-12-13T16:05:55;18.60;;;9.80;;
68655;SDS011;55638;51.122;13.606;2022-12-13T16:07:32;19.00;;;10.70;;
68655;SDS011;55638;51.122;13.606;2022-12-13T16:09:13;20.75;;;11.75;;
68655;SDS011;55638;51.122;13.606;2022-12-13T16:10:49;21.17;;;12.57;;
68655;SDS011;55638;51.122;13.606;2022-12-13T16:12:23;22.38;;;12.02;;
68655;SDS011;55638;51.122;13.606;2022-12-13T16:18:04;21.05;;;10.95;;
68655;SDS011;55638;51.122;13.606;2022-12-13T16:19:37;19.95;;;11.45;;
68655;SDS011;55638;51.122;13.606;2022-12-13T16:21:09;19.50;;;10.63;;
68655;SDS011;55638;51.122;13.606;2022-12-13T16:22:41;20.75;;;10.75;;
68655;SDS011;55638;51.122;13.606;2022-12-13T16:24:13;16.90;;;9.98;;
68655;SDS011;55638;51.122;13.606;2022-12-13T16:25:45;15.75;;;9.98;;
68655;SDS011;55638;51.122;13.606;2022-12-13T16:27:17;15.52;;;9.15;;
68655;SDS011;55638;51.122;13.606;2022-12-13T16:28:49;17.75;;;9.65;;
68655;SDS011;55638;51.122;13.606;2022-12-13T16:30:26;16.63;;;8.93;;
68655;SDS011;55638;51.122;13.606;2022-12-13T16:32:19;15.88;;;9.18;;
68655;SDS011;55638;51.122;13.606;2022-12-13T16:33:51;16.50;;;8.90;;
68655;SDS011;55638;51.122;13.606;2022-12-13T16:35:23;17.50;;;8.88;;
68655;SDS011;55638;51.122;13.606;2022-12-13T16:36:54;19.33;;;9.60;;
68655;SDS011;55638;51.122;13.606;2022-12-13T16:38:29;18.33;;;10.27;;
68655;SDS011;55638;51.122;13.606;2022-12-13T16:40:07;20.17;;;9.75;;
68655;SDS011;55638;51.122;13.606;2022-12-13T16:41:51;16.33;;;9.32;;
68655;SDS011;55638;51.122;13.606;2022-12-13T16:43:24;16.40;;;9.27;;
68655;SDS011;55638;51.122;13.606;2022-12-13T16:45:04;17.95;;;9.48;;
68655;SDS011;55638;51.122;13.606;2022-12-13T16:47:02;17.52;;;9.35;;
68655;SDS011;55638;51.122;13.606;2022-12-13T16:48:49;14.15;;;8.43;;
68655;SDS011;55638;51.122;13.606;2022-12-13T16:50:22;13.68;;;7.93;;
68655;SDS011;55638;51.122;13.606;2022-12-13T16:51:54;14.80;;;8.40;;
68655;SDS011;55638;51.122;13.606;2022-12-13T16:53:26;14.65;;;8.07;;
68655;SDS011;55638;51.122;13.606;2022-12-13T16:54:58;17.20;;;9.63;;
68655;SDS011;55638;51.122;13.606;2022-12-13T16:56:31;16.92;;;9.07;;
68655;SDS011;55638;51.122;13.606;2022-12-13T16:58:06;16.15;;;9.00;;
68655;SDS011;55638;51.122;13.606;2022-12-13T16:59:42;16.95;;;8.65;;
68655;SDS011;55638;51.122;13.606;2022-12-13T17:01:14;16.17;;;8.52;;
68655;SDS011;55638;51.122;13.606;2022-12-13T17:02:50;15.77;;;9.07;;
68655;SDS011;55638;51.122;13.606;2022-12-13T17:04:22;17.83;;;9.35;;
68655;SDS011;55638;51.122;13.606;2022-12-13T17:05:57;15.50;;;8.18;;
68655;SDS011;55638;51.122;13.606;2022-12-13T17:07:29;16.33;;;8.88;;
68655;SDS011;55638;51.122;13.606;2022-12-13T17:09:01;16.42;;;9.32;;
68655;SDS011;55638;51.122;13.606;2022-12-13T17:10:33;16.42;;;8.95;;
68655;SDS011;55638;51.122;13.606;2022-12-13T17:12:05;15.73;;;8.90;;
68655;SDS011;55638;51.122;13.606;2022-12-13T17:13:37;15.95;;;9.18;;
68655;SDS011;55638;51.122;13.606;2022-12-13T17:15:09;15.32;;;8.90;;
68655;SDS011;55638;51.122;13.606;2022-12-13T17:16:42;15.80;;;8.45;;
68655;SDS011;55638;51.122;13.606;2022-12-13T17:18:14;17.40;;;8.77;;
68655;SDS011;55638;51.122;13.606;2022-12-13T17:19:46;13.50;;;7.90;;
68655;SDS011;55638;51.122;13.606;2022-12-13T17:21:20;13.35;;;7.90;;
68655;SDS011;55638;51.122;13.606;2022-12-13T17:22:54;15.07;;;8.07;;
68655;SDS011;55638;51.122;13.606;2022-12-13T17:24:25;14.98;;;8.27;;
68655;SDS011;55638;51.122;13.606;2022-12-13T17:26:01;16.15;;;8.73;;
68655;SDS011;55638;51.122;13.606;2022-12-13T17:27:37;17.77;;;9.52;;
68655;SDS011;55638;51.122;13.606;2022-12-13T17:29:09;18.73;;;9.55;;
68655;SDS011;55638;51.122;13.606;2022-12-13T17:30:48;19.55;;;9.55;;
68655;SDS011;55638;51.122;13.606;2022-12-13T17:32:25;21.35;;;10.50;;
68655;SDS011;55638;51.122;13.606;2022-12-13T17:33:58;28.15;;;13.52;;
68655;SDS011;55638;51.122;13.606;2022-12-13T17:35:30;35.60;;;16.42;;
68655;SDS011;55638;51.122;13.606;2022-12-13T17:37:02;38.65;;;16.70;;
68655;SDS011;55638;51.122;13.606;2022-12-13T17:38:44;34.60;;;16.50;;
68655;SDS011;55638;51.122;13.606;2022-12-13T17:40:17;38.63;;;18.48;;
68655;SDS011;55638;51.122;13.606;2022-12-13T17:41:49;37.17;;;18.35;;
68655;SDS011;55638;51.122;13.606;2022-12-13T17:43:26;35.47;;;17.05;;
68655;SDS011;55638;51.122;13.606;2022-12-13T17:45:05;31.02;;;16.65;;
68655;SDS011;55638;51.122;13.606;2022-12-13T17:46:37;32.33;;;15.65;;
68655;SDS011;55638;51.122;13.606;2022-12-13T17:48:09;28.27;;;15.07;;
68655;SDS011;55638;51.122;13.606;2022-12-13T17:49:41;26.90;;;14.98;;
68655;SDS011;55638;51.122;13.606;2022-12-13T17:51:13;26.92;;;14.65;;
68655;SDS011;55638;51.122;13.606;2022-12-13T17:52:45;27.55;;;14.38;;
68655;SDS011;55638;51.122;13.606;2022-12-13T17:54:17;26.65;;;14.13;;
68655;SDS011;55638;51.122;13.606;2022-12-13T17:55:59;25.17;;;12.93;;
68655;SDS011;55638;51.122;13.606;2022-12-13T17:57:33;22.52;;;11.93;;
68655;SDS011;55638;51.122;13.606;2022-12-13T17:59:05;21.98;;;12.05;;
68655;SDS011;55638;51.122;13.606;2022-12-13T18:00:37;19.55;;;11.82;;
68655;SDS011;55638;51.122;13.606;2022-12-13T18:02:10;19.75;;;11.23;;
68655;SDS011;55638;51.122;13.606;2022-12-13T18:03:43;22.52;;;12.13;;
68655;SDS011;55638;51.122;13.606;2022-12-13T18:05:15;19.35;;;11.85;;
68655;SDS011;55638;51.122;13.606;2022-12-13T18:06:49;23.85;;;13.20;;
68655;SDS011;55638;51.122;13.606;2022-12-13T18:08:22;19.83;;;11.32;;
68655;SDS011;55638;51.122;13.606;2022-12-13T18:09:54;23.38;;;11.25;;
68655;SDS011;55638;51.122;13.606;2022-12-13T18:11:26;22.27;;;12.05;;
68655;SDS011;55638;51.122;13.606;2022-12-13T18:13:03;21.05;;;11.80;;
68655;SDS011;55638;51.122;13.606;2022-12-13T18:14:35;21.70;;;12.75;;
68655;SDS011;55638;51.122;13.606;2022-12-13T18:16:08;25.35;;;14.20;;
68655;SDS011;55638;51.122;13.606;2022-12-13T18:17:42;26.85;;;14.63;;
68655;SDS011;55638;51.122;13.606;2022-12-13T18:19:34;22.85;;;12.20;;
68655;SDS011;55638;51.122;13.606;2022-12-13T18:21:07;22.92;;;11.30;;
68655;SDS011;55638;51.122;13.606;2022-12-13T18:22:44;19.60;;;11.38;;
68655;SDS011;55638;51.122;13.606;2022-12-13T18:24:21;19.50;;;10.73;;
68655;SDS011;55638;51.122;13.606;2022-12-13T18:25:57;18.08;;;10.82;;
68655;SDS011;55638;51.122;13.606;2022-12-13T18:27:33;20.67;;;11.00;;
68655;SDS011;55638;51.122;13.606;2022-12-13T18:29:05;21.08;;;11.52;;
68655;SDS011;55638;51.122;13.606;2022-12-13T18:30:37;20.45;;;11.07;;
68655;SDS011;55638;51.122;13.606;2022-12-13T18:32:09;19.05;;;10.55;;
68655;SDS011;55638;51.122;13.606;2022-12-13T18:33:41;19.58;;;11.07;;
68655;SDS011;55638;51.122;13.606;2022-12-13T18:35:17;22.15;;;11.60;;
68655;SDS011;55638;51.122;13.606;2022-12-13T18:36:49;21.48;;;11.63;;
68655;SDS011;55638;51.122;13.606;2022-12-13T18:38:21;20.85;;;11.10;;
68655;SDS011;55638;51.122;13.606;2022-12-13T18:39:54;16.77;;;10.15;;
68655;SDS011;55638;51.122;13.606;2022-12-13T18:41:27;18.00;;;9.93;;
68655;SDS011;55638;51.122;13.606;2022-12-13T18:43:00;18.63;;;9.18;;
68655;SDS011;55638;51.122;13.606;2022-12-13T18:44:32;18.60;;;10.30;;
68655;SDS011;55638;51.122;13.606;2022-12-13T18:46:04;15.57;;;8.82;;
68655;SDS011;55638;51.122;13.606;2022-12-13T18:47:37;16.45;;;9.18;;
68655;SDS011;55638;51.122;13.606;2022-12-13T18:49:09;15.68;;;8.90;;
68655;SDS011;55638;51.122;13.606;2022-12-13T18:50:41;17.27;;;9.77;;
68655;SDS011;55638;51.122;13.606;2022-12-13T18:52:19;19.33;;;11.02;;
68655;SDS011;55638;51.122;13.606;2022-12-13T18:53:51;22.05;;;11.15;;
68655;SDS011;55638;51.122;13.606;2022-12-13T18:55:23;22.77;;;12.23;;
68655;SDS011;55638;51.122;13.606;2022-12-13T18:56:55;19.50;;;10.65;;
68655;SDS011;55638;51.122;13.606;2022-12-13T18:58:27;23.13;;;12.35;;
68655;SDS011;55638;51.122;13.606;2022-12-13T18:59:58;24.75;;;13.18;;
68655;SDS011;55638;51.122;13.606;2022-12-13T19:01:30;23.60;;;12.43;;
68655;SDS011;55638;51.122;13.606;2022-12-13T19:03:03;23.50;;;12.63;;
68655;SDS011;55638;51.122;13.606;2022-12-13T19:04:34;24.30;;;13.23;;
68655;SDS011;55638;51.122;13.606;2022-12-13T19:06:06;25.13;;;13.23;;
68655;SDS011;55638;51.122;13.606;2022-12-13T19:07:38;29.40;;;15.63;;
68655;SDS011;55638;51.122;13.606;2022-12-13T19:09:10;28.15;;;15.13;;
68655;SDS011;55638;51.122;13.606;2022-12-13T19:10:46;26.42;;;13.45;;
68655;SDS011;55638;51.122;13.606;2022-12-13T19:12:18;23.15;;;13.23;;
68655;SDS011;55638;51.122;13.606;2022-12-13T19:13:50;21.95;;;12.57;;
68655;SDS011;55638;51.122;13.606;2022-12-13T19:15:22;22.73;;;12.57;;
68655;SDS011;55638;51.122;13.606;2022-12-13T19:16:55;26.50;;;14.05;;
68655;SDS011;55638;51.122;13.606;2022-12-13T19:18:27;24.70;;;13.32;;
68655;SDS011;55638;51.122;13.606;2022-12-13T19:19:59;26.63;;;13.68;;
68655;SDS011;55638;51.122;13.606;2022-12-13T19:21:32;25.63;;;14.82;;
68655;SDS011;55638;51.122;13.606;2022-12-13T19:23:04;24.90;;;13.57;;
68655;SDS011;55638;51.122;13.606;2022-12-13T19:24:36;25.10;;;13.35;;
68655;SDS011;55638;51.122;13.606;2022-12-13T19:26:09;24.42;;;13.90;;
68655;SDS011;55638;51.122;13.606;2022-12-13T19:27:45;25.77;;;14.77;;
68655;SDS011;55638;51.122;13.606;2022-12-13T19:29:19;23.77;;;13.25;;
68655;SDS011;55638;51.122;13.606;2022-12-13T19:30:51;27.25;;;14.50;;
68655;SDS011;55638;51.122;13.606;2022-12-13T19:32:23;23.25;;;13.80;;
68655;SDS011;55638;51.122;13.606;2022-12-13T19:33:55;23.63;;;13.88;;
68655;SDS011;55638;51.122;13.606;2022-12-13T19:35:28;25.48;;;13.35;;
68655;SDS011;55638;51.122;13.606;2022-12-13T19:36:59;26.77;;;14.30;;
68655;SDS011;55638;51.122;13.606;2022-12-13T19:38:37;27.15;;;14.75;;
68655;SDS011;55638;51.122;13.606;2022-12-13T19:40:10;26.60;;;14.73;;
68655;SDS011;55638;51.122;13.606;2022-12-13T19:41:43;26.75;;;14.93;;
68655;SDS011;55638;51.122;13.606;2022-12-13T19:43:15;27.23;;;15.05;;
68655;SDS011;55638;51.122;13.606;2022-12-13T19:44:46;25.45;;;14.32;;
68655;SDS011;55638;51.122;13.606;2022-12-13T19:46:19;23.60;;;13.88;;
68655;SDS011;55638;51.122;13.606;2022-12-13T19:47:52;22.58;;;13.45;;
68655;SDS011;55638;51.122;13.606;2022-12-13T19:49:24;26.50;;;14.43;;
68655;SDS011;55638;51.122;13.606;2022-12-13T19:50:59;23.50;;;13.85;;
68655;SDS011;55638;51.122;13.606;2022-12-13T19:52:32;25.02;;;13.55;;
68655;SDS011;55638;51.122;13.606;2022-12-13T19:54:04;23.95;;;13.40;;
68655;SDS011;55638;51.122;13.606;2022-12-13T19:55:40;25.25;;;14.30;;
68655;SDS011;55638;51.122;13.606;2022-12-13T19:57:12;23.75;;;13.00;;
68655;SDS011;55638;51.122;13.606;2022-12-13T19:58:45;21.20;;;12.20;;
68655;SDS011;55638;51.122;13.606;2022-12-13T20:00:18;21.08;;;11.93;;
68655;SDS011;55638;51.122;13.606;2022-12-13T20:01:50;20.90;;;12.05;;
68655;SDS011;55638;51.122;13.606;2022-12-13T20:03:22;21.60;;;11.50;;
68655;SDS011;55638;51.122;13.606;2022-12-13T20:04:54;21.00;;;11.55;;
68655;SDS011;55638;51.122;13.606;2022-12-13T20:06:26;26.77;;;13.55;;
68655;SDS011;55638;51.122;13.606;2022-12-13T20:07:58;22.33;;;12.63;;
68655;SDS011;55638;51.122;13.606;2022-12-13T20:09:30;23.95;;;12.88;;
68655;SDS011;55638;51.122;13.606;2022-12-13T20:11:05;22.88;;;12.65;;
68655;SDS011;55638;51.122;13.606;2022-12-13T20:12:38;23.65;;;12.27;;
68655;SDS011;55638;51.122;13.606;2022-12-13T20:14:11;25.38;;;12.88;;
68655;SDS011;55638;51.122;13.606;2022-12-13T20:15:46;19.55;;;11.55;;
68655;SDS011;55638;51.122;13.606;2022-12-13T20:17:18;23.77;;;13.15;;
68655;SDS011;55638;51.122;13.606;2022-12-13T20:18:56;24.98;;;13.77;;
68655;SDS011;55638;51.122;13.606;2022-12-13T20:20:30;26.10;;;14.73;;
68655;SDS011;55638;51.122;13.606;2022-12-13T20:22:21;27.33;;;15.25;;
68655;SDS011;55638;51.122;13.606;2022-12-13T20:23:54;26.30;;;15.27;;
68655;SDS011;55638;51.122;13.606;2022-12-13T20:25:25;27.98;;;14.73;;
68655;SDS011;55638;51.122;13.606;2022-12-13T20:26:57;24.83;;;14.35;;
68655;SDS011;55638;51.122;13.606;2022-12-13T20:28:29;25.20;;;14.88;;
68655;SDS011;55638;51.122;13.606;2022-12-13T20:30:02;24.58;;;13.90;;
68655;SDS011;55638;51.122;13.606;2022-12-13T20:31:36;21.52;;;13.52;;
68655;SDS011;55638;51.122;13.606;2022-12-13T20:33:09;26.50;;;13.85;;
68655;SDS011;55638;51.122;13.606;2022-12-13T20:34:41;21.75;;;13.15;;
68655;SDS011;55638;51.122;13.606;2022-12-13T20:36:13;21.52;;;12.68;;
68655;SDS011;55638;51.122;13.606;2022-12-13T20:37:57;25.08;;;13.95;;
68655;SDS011;55638;51.122;13.606;2022-12-13T20:39:28;19.60;;;12.02;;
68655;SDS011;55638;51.122;13.606;2022-12-13T20:41:00;26.73;;;14.75;;
68655;SDS011;55638;51.122;13.606;2022-12-13T20:42:32;25.60;;;14.60;;
68655;SDS011;55638;51.122;13.606;2022-12-13T20:44:05;24.67;;;14.73;;
68655;SDS011;55638;51.122;13.606;2022-12-13T20:45:39;29.40;;;15.18;;
68655;SDS011;55638;51.122;13.606;2022-12-13T20:47:11;25.75;;;14.77;;
68655;SDS011;55638;51.122;13.606;2022-12-13T20:48:43;26.42;;;14.45;;
68655;SDS011;55638;51.122;13.606;2022-12-13T20:50:16;28.65;;;15.90;;
68655;SDS011;55638;51.122;13.606;2022-12-13T20:51:48;29.48;;;16.58;;
68655;SDS011;55638;51.122;13.606;2022-12-13T20:53:19;31.20;;;16.55;;
68655;SDS011;55638;51.122;13.606;2022-12-13T20:54:51;25.45;;;14.45;;
68655;SDS011;55638;51.122;13.606;2022-12-13T20:56:24;27.98;;;15.70;;
68655;SDS011;55638;51.122;13.606;2022-12-13T20:57:58;23.60;;;13.95;;
68655;SDS011;55638;51.122;13.606;2022-12-13T20:59:31;26.33;;;14.90;;
68655;SDS011;55638;51.122;13.606;2022-12-13T21:01:03;27.30;;;15.13;;
68655;SDS011;55638;51.122;13.606;2022-12-13T21:02:36;22.73;;;13.32;;
68655;SDS011;55638;51.122;13.606;2022-12-13T21:04:09;27.00;;;14.23;;
68655;SDS011;55638;51.122;13.606;2022-12-13T21:05:41;25.40;;;14.30;;
68655;SDS011;55638;51.122;13.606;2022-12-13T21:07:17;26.33;;;15.07;;
68655;SDS011;55638;51.122;13.606;2022-12-13T21:09:09;26.65;;;13.85;;
68655;SDS011;55638;51.122;13.606;2022-12-13T21:10:41;23.08;;;14.07;;
68655;SDS011;55638;51.122;13.606;2022-12-13T21:12:13;24.08;;;13.68;;
68655;SDS011;55638;51.122;13.606;2022-12-13T21:13:45;21.65;;;13.13;;
68655;SDS011;55638;51.122;13.606;2022-12-13T21:15:20;25.45;;;14.23;;
68655;SDS011;55638;51.122;13.606;2022-12-13T21:17:01;23.25;;;13.85;;
68655;SDS011;55638;51.122;13.606;2022-12-13T21:18:35;26.55;;;14.90;;
68655;SDS011;55638;51.122;13.606;2022-12-13T21:20:07;24.50;;;14.38;;
68655;SDS011;55638;51.122;13.606;2022-12-13T21:21:39;26.95;;;13.95;;
68655;SDS011;55638;51.122;13.606;2022-12-13T21:23:11;21.60;;;13.15;;
68655;SDS011;55638;51.122;13.606;2022-12-13T21:24:42;24.92;;;14.20;;
68655;SDS011;55638;51.122;13.606;2022-12-13T21:26:14;27.73;;;14.32;;
68655;SDS011;55638;51.122;13.606;2022-12-13T21:27:46;27.02;;;15.00;;
68655;SDS011;55638;51.122;13.606;2022-12-13T21:29:18;26.05;;;14.48;;
68655;SDS011;55638;51.122;13.606;2022-12-13T21:31:00;26.05;;;15.25;;
68655;SDS011;55638;51.122;13.606;2022-12-13T21:32:37;26.35;;;13.90;;
68655;SDS011;55638;51.122;13.606;2022-12-13T21:34:09;28.23;;;15.80;;
68655;SDS011;55638;51.122;13.606;2022-12-13T21:35:42;30.05;;;16.65;;
68655;SDS011;55638;51.122;13.606;2022-12-13T21:37:14;29.52;;;15.55;;
68655;SDS011;55638;51.122;13.606;2022-12-13T21:38:45;28.45;;;16.48;;
68655;SDS011;55638;51.122;13.606;2022-12-13T21:40:18;28.90;;;15.80;;
68655;SDS011;55638;51.122;13.606;2022-12-13T21:41:49;25.63;;;15.55;;
68655;SDS011;55638;51.122;13.606;2022-12-13T21:43:22;29.08;;;16.77;;
68655;SDS011;55638;51.122;13.606;2022-12-13T21:45:07;29.08;;;16.38;;
68655;SDS011;55638;51.122;13.606;2022-12-13T21:46:39;29.27;;;15.75;;
68655;SDS011;55638;51.122;13.606;2022-12-13T21:48:32;33.63;;;16.85;;
68655;SDS011;55638;51.122;13.606;2022-12-13T21:50:05;27.77;;;15.05;;
68655;SDS011;55638;51.122;13.606;2022-12-13T21:51:37;30.55;;;16.63;;
68655;SDS011;55638;51.122;13.606;2022-12-13T21:53:14;29.83;;;16.42;;